• Join FlightAware (Why Join?)
  • Login
  • US Flag 
03:11AM EDT


 

Airport Tracker/Info


-or-


 

Live Flight TrackerFlight Track Log ✈ EGF3796 ✈ 29-Apr-2013 ✈ KORD - KXNA

Flight Track Log - Related Links

Times and Time Zones

All times are in EDT time to prevent confusion due to time zone crossing. See the EGF3796 flight status page for this flight to view local times or setup timezone preferences in your user account.

Time Position Orientation Groundspeed Altitude Reporting Facility
EDT Latitude Longitude Course Direction KTS MPH feet Rate Location/Type
07:00PM 41.9667 -87.9667 201° Southwest 174 200 2,300  Level Chicago TRACON
07:01PM 41.9167 -88.0000 206° Southwest 204 235 3,800 1,800 Climbing Chicago TRACON
07:02PM 41.7698 -87.9979 206° Southwest  Level FlightAware Approximate
07:03PM 41.6667 -88.0463 203° Southwest  Level FlightAware Approximate
07:03PM 41.8447 -87.9958 178° South 248 285 6,300  Level Chicago Center
07:04PM 41.5634 -88.0980 197° South  Level FlightAware Approximate
07:04PM 41.7586 -88.0022 183° South 274 315 9,400  Level Chicago Center
07:05PM 41.4577 -88.1403 197° South  Level FlightAware Approximate
07:05PM 41.6869 -88.0381 200° South 275 316 11,700  Level Chicago Center
07:06PM 41.3578 -88.1795 201° Southwest  Level FlightAware Approximate
07:06PM 41.6106 -88.0761 200° South 290 334 13,800  Level Chicago Center
07:07PM 41.5233 -88.1175 200° South 337 388 15,000 1,200 Climbing Chicago Center
07:08PM 41.4081 -88.1692 199° South 382 440 16,300 1,320 Climbing Chicago Center
07:09PM 41.3031 -88.2194 200° South 408 470 17,800 1,740 Climbing Chicago Center
07:10PM 41.1975 -88.2678 199° South 407 468 19,900 1,740 Climbing Chicago Center
07:11PM 41.0917 -88.3167 199° South 405 466 21,500 1,860 Climbing Chicago Center
07:12PM 40.9642 -88.3747 199° South 405 466 23,800 1,980 Climbing Chicago Center
07:13PM 40.8600 -88.4217 199° South 400 460 25,600 1,260 Climbing Chicago Center
07:14PM 40.7558 -88.4692 199° South 397 457 26,500 720 Climbing Chicago Center
07:15PM 40.6675 -88.5639 219° Southwest 409 471 27,200 660 Climbing Chicago Center
07:16PM 40.5769 -88.6628 220° Southwest 421 484 27,900 660 Climbing Chicago Center
07:17PM 40.4844 -88.7644 220° Southwest 433 498 28,600 900 Climbing Chicago Center
07:18PM 40.3708 -88.8856 219° Southwest 443 510 29,800 1,080 Climbing Chicago Center
07:19PM 40.2753 -88.9878 219° Southwest 444 511 30,900 960 Climbing Chicago Center
07:20PM 40.1825 -89.0892 220° Southwest 437 503 31,900 900 Climbing Chicago Center
07:21PM 40.1086 -89.1669 219° Southwest 432 497 32,700 900 Climbing Kansas City Center
07:22PM 40.0164 -89.2672 220° Southwest 430 495 33,700 900 Climbing Kansas City Center
07:23PM 39.9064 -89.3853 219° Southwest 426 490 34,600 900 Climbing Kansas City Center
07:24PM 39.8158 -89.4819 219° Southwest 422 486 35,600 660 Climbing Kansas City Center
07:25PM 39.7247 -89.5778 219° Southwest 420 483 36,000 180 Climbing Kansas City Center
07:26PM 39.6219 -89.6853 219° Southwest 426 490 36,000  Level Kansas City Center
07:27PM 39.5283 -89.7864 220° Southwest 433 498 36,000  Level Kansas City Center
07:28PM 39.4464 -89.9025 228° Southwest 436 502 36,000  Level Kansas City Center
07:29PM 39.3644 -90.0178 227° Southwest 436 502 36,000  Level Kansas City Center
07:30PM 39.2819 -90.1333 227° Southwest 439 505 36,000  Level Kansas City Center
07:32PM 39.2003 -90.2494 228° Southwest 439 505 36,000  Level Kansas City Center
07:33PM 39.1014 -90.3867 227° Southwest 439 505 36,000  Level Kansas City Center
07:34PM 39.0192 -90.5008 227° Southwest 439 505 36,000  Level Kansas City Center
07:35PM 38.9378 -90.6100 226° Southwest 425 489 36,000  Level Kansas City Center
07:36PM 38.8564 -90.7269 228° Southwest 443 510 36,000  Level Kansas City Center
07:37PM 38.7575 -90.8597 226° Southwest 437 503 36,000  Level Kansas City Center
07:38PM 38.6747 -90.9731 227° Southwest 439 505 36,000  Level Kansas City Center
07:39PM 38.5908 -91.0881 227° Southwest 442 509 36,000  Level Kansas City Center
07:40PM 38.5069 -91.2017 227° Southwest 443 510 36,000  Level Kansas City Center
07:41PM 38.4233 -91.3142 227° Southwest 442 509 36,000  Level Kansas City Center
07:43PM 38.2486 -91.5483 227° Southwest 443 510 36,000 -360 Level Kansas City Center
07:44PM 38.1642 -91.6603 226° Southwest 437 503 35,000 -1,320 Descending Kansas City Center
07:45PM 38.0631 -91.7939 226° Southwest 437 503 33,300 -1,500 Descending Kansas City Center
07:46PM 37.9769 -91.9075 226° Southwest 442 509 32,000 -660 Descending Kansas City Center
07:47PM 37.8917 -92.0206 226° Southwest 439 505 32,000 -180 Level Kansas City Center
07:48PM 37.8156 -92.1194 226° Southwest 442 509 31,700 -1,080 Descending Kansas City Center
07:49PM 37.7122 -92.2556 226° Southwest 447 514 29,800 -1,620 Descending Kansas City Center
07:50PM 37.6303 -92.3639 226° Southwest 443 510 28,400 -1,440 Descending Kansas City Center
07:51PM 37.5458 -92.4744 226° Southwest 436 502 26,900 -1,440 Descending Kansas City Center
07:52PM 37.4622 -92.5828 226° Southwest 430 495 25,500 -1,440 Descending Kansas City Center
07:53PM 37.3756 -92.6944 226° Southwest 436 502 24,000 -1,680 Descending Kansas City Center
07:54PM 37.2706 -92.8294 226° Southwest 446 513 22,100 -1,680 Descending Kansas City Center
07:55PM 37.1872 -92.9367 226° Southwest 435 501 20,600 -1,440 Descending Kansas City Center
07:56PM 37.1022 -93.0442 225° Southwest 432 497 19,200 -1,440 Descending Kansas City Center
07:57PM 37.0217 -93.1483 226° Southwest 421 484 17,700 -1,380 Descending Kansas City Center
07:58PM 36.9425 -93.2492 226° Southwest 410 472 16,400 -840 Descending Kansas City Center
07:59PM 36.8608 -93.3525 225° Southwest 403 464 16,000 -600 Descending Kansas City Center
08:00PM 36.7817 -93.4508 225° Southwest 402 463 15,200 -1,140 Descending Kansas City Center
08:01PM 36.7058 -93.5472 226° Southwest 394 453 13,700 -1,500 Descending Kansas City Center
08:02PM 36.6328 -93.6389 225° Southwest 381 438 12,200 -1,560 Descending Kansas City Center
08:04PM 36.5531 -93.7531 229° Southwest 369 425 10,500 -1,140 Descending Kansas City Center
08:05PM 36.5225 -93.8528 249° West 318 366 9,900 -1,020 Descending Kansas City Center
08:06PM 36.4972 -93.9428 251° West 293 337 8,400 -1,380 Descending Kansas City Center
08:07PM 36.4708 -94.0319 250° West 282 325 7,100 -1,260 Descending Kansas City Center
08:08PM 36.4450 -94.1178 250° West 273 314 5,800 -1,260 Descending Kansas City Center